메인 페이지
METAR-TAF:

METAR-TAF

공항 :

Worcester Regional Airport

우스터, 매사추세츠, 미국

위도: 42-16-14N, 경도: 071-52-23W, 고도: 307m

현재 날씨관측

예보는 55분 전, 22:54시(UTC)에 발표되었습니다.
15kt, 순간 최대 풍속 25kt
온도 -6°C
습도 32%
기압 1013 hPa
시정: 16.1km
맑음

METAR: KORH 022254Z 28015G25KT 10SM CLR M06/M20 A2991 RMK AO2 PK WND 29028/2243 SLP148 T10561200

시각: 18:49 (23:49 UTC)

예보

예보는 15분 전, 23:34시(UTC)에 발표되었습니다.
예보 대상 시간: 03일 00시부터 03일 24시까지 (UTC)
17kt, 순간 최대 풍속 28kt
시정: 10km
맑음
03일 0300시부터 (UTC)
12kt, 순간 최대 풍속 24kt
시정: 10km
고도 25000ft 상공 구름 보통
03일 0600시부터 (UTC)
10kt, 순간 최대 풍속 19kt
시정: 10km
고도 10000ft 상공 구름 많음
03일 1600시부터 (UTC)
11kt, 순간 최대 풍속 21kt
시정: 10km
고도 4000ft 상공 구름 보통

TAF: KORH 022334Z 0300/0324 28017G28KT P6SM SKC FM030300 27012G24KT P6SM SCT250 FM030600 26010G19KT P6SM BKN100 FM031600 27011G21KT P6SM SCT040

4,000개 이상의 공항 관측 자료 및 예보 (METAR 및 TAF 보고).

지도상에서 검색 가능한 기상관측소가 노란 점과 빨간 점으로 표시되어 있습니다.

기상관측소 명을 보려면 표시 위로 마우스를 이동하세요.

날씨 관측과 예보를 보려면 클릭하세요.

지도 변경 : 확대하려면 엑스 표시가 있는 녹색 버튼, 축소하려면 빼기 표시가 있는 녹색 버튼, 다음 페이지의 지도를 보려면 녹색 화살표를 클릭하세요.


METAR-TAF: